sensor_id;sensor_type;location;lat;lon;timestamp;P1;durP1;ratioP1;P2;durP2;ratioP2
70535;SDS011;58089;48.752;11.338;2023-12-28T00:01:36;14.23;;;6.53;;
70535;SDS011;58089;48.752;11.338;2023-12-28T00:04:01;14.70;;;7.80;;
70535;SDS011;58089;48.752;11.338;2023-12-28T00:06:26;12.70;;;6.87;;
70535;SDS011;58089;48.752;11.338;2023-12-28T00:08:52;12.07;;;6.60;;
70535;SDS011;58089;48.752;11.338;2023-12-28T00:11:17;10.53;;;5.20;;
70535;SDS011;58089;48.752;11.338;2023-12-28T00:13:42;11.83;;;5.97;;
70535;SDS011;58089;48.752;11.338;2023-12-28T00:16:08;11.50;;;5.10;;
70535;SDS011;58089;48.752;11.338;2023-12-28T00:18:33;10.60;;;5.00;;
70535;SDS011;58089;48.752;11.338;2023-12-28T00:20:58;9.70;;;5.20;;
70535;SDS011;58089;48.752;11.338;2023-12-28T00:23:23;8.70;;;4.63;;
70535;SDS011;58089;48.752;11.338;2023-12-28T00:25:49;10.40;;;5.40;;
70535;SDS011;58089;48.752;11.338;2023-12-28T00:28:14;9.17;;;4.10;;
70535;SDS011;58089;48.752;11.338;2023-12-28T00:30:39;11.63;;;5.17;;
70535;SDS011;58089;48.752;11.338;2023-12-28T00:33:05;10.00;;;5.03;;
70535;SDS011;58089;48.752;11.338;2023-12-28T00:35:30;11.07;;;5.00;;
70535;SDS011;58089;48.752;11.338;2023-12-28T00:37:55;10.67;;;5.07;;
70535;SDS011;58089;48.752;11.338;2023-12-28T00:40:21;9.63;;;5.13;;
70535;SDS011;58089;48.752;11.338;2023-12-28T00:42:47;12.30;;;4.90;;
70535;SDS011;58089;48.752;11.338;2023-12-28T00:45:12;11.15;;;4.72;;
70535;SDS011;58089;48.752;11.338;2023-12-28T00:47:38;9.27;;;4.40;;
70535;SDS011;58089;48.752;11.338;2023-12-28T00:50:03;8.80;;;4.50;;
70535;SDS011;58089;48.752;11.338;2023-12-28T00:52:29;8.13;;;4.32;;
70535;SDS011;58089;48.752;11.338;2023-12-28T00:54:54;9.90;;;4.63;;
70535;SDS011;58089;48.752;11.338;2023-12-28T00:57:19;7.97;;;4.70;;
70535;SDS011;58089;48.752;11.338;2023-12-28T00:59:45;9.67;;;4.70;;
70535;SDS011;58089;48.752;11.338;2023-12-28T01:02:10;9.80;;;5.00;;
70535;SDS011;58089;48.752;11.338;2023-12-28T01:04:35;9.20;;;5.23;;
70535;SDS011;58089;48.752;11.338;2023-12-28T01:07:01;7.70;;;4.30;;
70535;SDS011;58089;48.752;11.338;2023-12-28T01:09:30;9.15;;;4.30;;
70535;SDS011;58089;48.752;11.338;2023-12-28T01:11:57;8.48;;;4.78;;
70535;SDS011;58089;48.752;11.338;2023-12-28T01:14:22;11.50;;;5.30;;
70535;SDS011;58089;48.752;11.338;2023-12-28T01:16:48;9.87;;;4.73;;
70535;SDS011;58089;48.752;11.338;2023-12-28T01:19:13;10.00;;;5.22;;
70535;SDS011;58089;48.752;11.338;2023-12-28T01:21:38;8.47;;;4.40;;
70535;SDS011;58089;48.752;11.338;2023-12-28T01:24:04;8.53;;;4.20;;
70535;SDS011;58089;48.752;11.338;2023-12-28T01:26:29;9.47;;;4.40;;
70535;SDS011;58089;48.752;11.338;2023-12-28T01:28:54;8.60;;;4.70;;
70535;SDS011;58089;48.752;11.338;2023-12-28T01:31:22;10.52;;;5.10;;
70535;SDS011;58089;48.752;11.338;2023-12-28T01:33:47;10.60;;;5.20;;
70535;SDS011;58089;48.752;11.338;2023-12-28T01:36:18;9.53;;;4.83;;
70535;SDS011;58089;48.752;11.338;2023-12-28T01:38:44;10.70;;;5.38;;
70535;SDS011;58089;48.752;11.338;2023-12-28T01:41:10;9.83;;;4.73;;
70535;SDS011;58089;48.752;11.338;2023-12-28T01:43:35;11.50;;;4.33;;
70535;SDS011;58089;48.752;11.338;2023-12-28T01:46:01;10.00;;;4.63;;
70535;SDS011;58089;48.752;11.338;2023-12-28T01:48:27;7.70;;;4.10;;
70535;SDS011;58089;48.752;11.338;2023-12-28T01:50:52;8.00;;;4.38;;
70535;SDS011;58089;48.752;11.338;2023-12-28T01:53:18;11.10;;;4.68;;
70535;SDS011;58089;48.752;11.338;2023-12-28T01:55:44;9.13;;;4.07;;
70535;SDS011;58089;48.752;11.338;2023-12-28T01:58:09;8.93;;;3.87;;
70535;SDS011;58089;48.752;11.338;2023-12-28T02:00:35;8.05;;;4.00;;
70535;SDS011;58089;48.752;11.338;2023-12-28T02:03:03;8.73;;;4.37;;
70535;SDS011;58089;48.752;11.338;2023-12-28T02:05:30;9.02;;;4.15;;
70535;SDS011;58089;48.752;11.338;2023-12-28T02:07:56;8.00;;;4.20;;
70535;SDS011;58089;48.752;11.338;2023-12-28T02:10:21;8.55;;;3.92;;
70535;SDS011;58089;48.752;11.338;2023-12-28T02:12:46;7.80;;;4.03;;
70535;SDS011;58089;48.752;11.338;2023-12-28T02:15:12;12.83;;;4.50;;
70535;SDS011;58089;48.752;11.338;2023-12-28T02:17:40;17.38;;;7.25;;
70535;SDS011;58089;48.752;11.338;2023-12-28T02:20:08;15.32;;;6.32;;
70535;SDS011;58089;48.752;11.338;2023-12-28T02:22:35;17.37;;;7.13;;
70535;SDS011;58089;48.752;11.338;2023-12-28T02:25:04;13.88;;;5.90;;
70535;SDS011;58089;48.752;11.338;2023-12-28T02:27:31;15.98;;;6.57;;
70535;SDS011;58089;48.752;11.338;2023-12-28T02:30:05;24.50;;;9.07;;
70535;SDS011;58089;48.752;11.338;2023-12-28T02:32:33;14.68;;;6.55;;
70535;SDS011;58089;48.752;11.338;2023-12-28T02:35:11;10.17;;;4.57;;
70535;SDS011;58089;48.752;11.338;2023-12-28T02:37:55;12.82;;;4.85;;
70535;SDS011;58089;48.752;11.338;2023-12-28T02:40:21;8.98;;;4.43;;
70535;SDS011;58089;48.752;11.338;2023-12-28T02:42:47;8.38;;;4.10;;
70535;SDS011;58089;48.752;11.338;2023-12-28T02:45:13;9.20;;;4.60;;
70535;SDS011;58089;48.752;11.338;2023-12-28T02:47:38;8.27;;;4.10;;
70535;SDS011;58089;48.752;11.338;2023-12-28T02:50:03;8.27;;;4.20;;
70535;SDS011;58089;48.752;11.338;2023-12-28T02:52:29;8.38;;;3.88;;
70535;SDS011;58089;48.752;11.338;2023-12-28T02:54:54;9.17;;;4.27;;
70535;SDS011;58089;48.752;11.338;2023-12-28T02:57:20;9.30;;;4.30;;
70535;SDS011;58089;48.752;11.338;2023-12-28T02:59:45;13.03;;;4.83;;
70535;SDS011;58089;48.752;11.338;2023-12-28T03:02:10;9.97;;;4.43;;
70535;SDS011;58089;48.752;11.338;2023-12-28T03:04:36;7.80;;;3.90;;
70535;SDS011;58089;48.752;11.338;2023-12-28T03:07:01;8.55;;;4.00;;
70535;SDS011;58089;48.752;11.338;2023-12-28T03:09:26;8.07;;;3.80;;
70535;SDS011;58089;48.752;11.338;2023-12-28T03:11:52;8.83;;;4.07;;
70535;SDS011;58089;48.752;11.338;2023-12-28T03:14:17;8.47;;;3.90;;
70535;SDS011;58089;48.752;11.338;2023-12-28T03:16:42;9.70;;;4.30;;
70535;SDS011;58089;48.752;11.338;2023-12-28T03:19:08;9.03;;;3.97;;
70535;SDS011;58089;48.752;11.338;2023-12-28T03:21:33;9.07;;;3.97;;
70535;SDS011;58089;48.752;11.338;2023-12-28T03:23:58;8.80;;;3.93;;
70535;SDS011;58089;48.752;11.338;2023-12-28T03:26:24;7.83;;;3.97;;
70535;SDS011;58089;48.752;11.338;2023-12-28T03:28:49;10.37;;;4.63;;
70535;SDS011;58089;48.752;11.338;2023-12-28T03:31:14;12.77;;;6.23;;
70535;SDS011;58089;48.752;11.338;2023-12-28T03:33:40;13.77;;;5.90;;
70535;SDS011;58089;48.752;11.338;2023-12-28T03:36:05;11.27;;;4.80;;
70535;SDS011;58089;48.752;11.338;2023-12-28T03:38:30;10.65;;;5.15;;
70535;SDS011;58089;48.752;11.338;2023-12-28T03:40:56;13.77;;;5.17;;
70535;SDS011;58089;48.752;11.338;2023-12-28T03:43:21;10.77;;;4.60;;
70535;SDS011;58089;48.752;11.338;2023-12-28T03:45:46;9.57;;;4.20;;
70535;SDS011;58089;48.752;11.338;2023-12-28T03:48:12;9.70;;;4.50;;
70535;SDS011;58089;48.752;11.338;2023-12-28T03:50:37;10.23;;;4.27;;
70535;SDS011;58089;48.752;11.338;2023-12-28T03:53:02;8.13;;;4.17;;
70535;SDS011;58089;48.752;11.338;2023-12-28T03:55:28;7.32;;;3.95;;
70535;SDS011;58089;48.752;11.338;2023-12-28T03:57:53;7.90;;;4.00;;
70535;SDS011;58089;48.752;11.338;2023-12-28T04:00:19;10.70;;;4.60;;
70535;SDS011;58089;48.752;11.338;2023-12-28T04:02:46;8.48;;;4.10;;
70535;SDS011;58089;48.752;11.338;2023-12-28T04:05:11;10.40;;;4.17;;
70535;SDS011;58089;48.752;11.338;2023-12-28T04:07:36;7.77;;;4.07;;
70535;SDS011;58089;48.752;11.338;2023-12-28T04:10:02;8.33;;;4.40;;
70535;SDS011;58089;48.752;11.338;2023-12-28T04:12:27;8.73;;;4.43;;
70535;SDS011;58089;48.752;11.338;2023-12-28T04:14:53;8.65;;;4.30;;
70535;SDS011;58089;48.752;11.338;2023-12-28T04:17:18;9.47;;;4.73;;
70535;SDS011;58089;48.752;11.338;2023-12-28T04:19:43;8.43;;;4.27;;
70535;SDS011;58089;48.752;11.338;2023-12-28T04:22:09;8.97;;;4.10;;
70535;SDS011;58089;48.752;11.338;2023-12-28T04:24:34;8.53;;;4.70;;
70535;SDS011;58089;48.752;11.338;2023-12-28T04:26:59;10.00;;;4.67;;
70535;SDS011;58089;48.752;11.338;2023-12-28T04:29:25;9.70;;;5.50;;
70535;SDS011;58089;48.752;11.338;2023-12-28T04:31:50;11.50;;;6.03;;
70535;SDS011;58089;48.752;11.338;2023-12-28T04:34:15;10.40;;;5.60;;
70535;SDS011;58089;48.752;11.338;2023-12-28T04:36:41;12.17;;;5.80;;
70535;SDS011;58089;48.752;11.338;2023-12-28T04:39:12;8.88;;;4.88;;
70535;SDS011;58089;48.752;11.338;2023-12-28T04:41:37;10.37;;;5.57;;
70535;SDS011;58089;48.752;11.338;2023-12-28T04:44:02;11.57;;;6.20;;
70535;SDS011;58089;48.752;11.338;2023-12-28T04:46:28;11.27;;;6.00;;
70535;SDS011;58089;48.752;11.338;2023-12-28T04:48:53;12.30;;;6.20;;
70535;SDS011;58089;48.752;11.338;2023-12-28T04:51:19;9.77;;;5.80;;
70535;SDS011;58089;48.752;11.338;2023-12-28T04:53:44;11.10;;;5.90;;
70535;SDS011;58089;48.752;11.338;2023-12-28T04:56:09;11.63;;;6.33;;
70535;SDS011;58089;48.752;11.338;2023-12-28T04:58:34;9.40;;;5.27;;
70535;SDS011;58089;48.752;11.338;2023-12-28T05:01:01;11.38;;;6.05;;
70535;SDS011;58089;48.752;11.338;2023-12-28T05:03:27;10.07;;;5.73;;
70535;SDS011;58089;48.752;11.338;2023-12-28T05:05:52;10.47;;;5.67;;
70535;SDS011;58089;48.752;11.338;2023-12-28T05:08:18;10.63;;;5.70;;
70535;SDS011;58089;48.752;11.338;2023-12-28T05:10:43;8.88;;;5.28;;
70535;SDS011;58089;48.752;11.338;2023-12-28T05:13:09;9.93;;;5.13;;
70535;SDS011;58089;48.752;11.338;2023-12-28T05:15:34;11.47;;;6.00;;
70535;SDS011;58089;48.752;11.338;2023-12-28T05:17:59;10.13;;;5.77;;
70535;SDS011;58089;48.752;11.338;2023-12-28T05:20:25;9.73;;;5.60;;
70535;SDS011;58089;48.752;11.338;2023-12-28T05:22:50;10.43;;;5.53;;
70535;SDS011;58089;48.752;11.338;2023-12-28T05:25:15;11.60;;;6.00;;
70535;SDS011;58089;48.752;11.338;2023-12-28T05:27:41;9.87;;;5.03;;
70535;SDS011;58089;48.752;11.338;2023-12-28T05:30:07;9.45;;;5.00;;
70535;SDS011;58089;48.752;11.338;2023-12-28T05:32:33;9.67;;;5.20;;
70535;SDS011;58089;48.752;11.338;2023-12-28T05:34:59;11.80;;;5.25;;
70535;SDS011;58089;48.752;11.338;2023-12-28T05:37:25;10.00;;;5.43;;
70535;SDS011;58089;48.752;11.338;2023-12-28T05:39:50;8.73;;;4.80;;
70535;SDS011;58089;48.752;11.338;2023-12-28T05:42:16;10.13;;;4.97;;
70535;SDS011;58089;48.752;11.338;2023-12-28T05:44:42;10.77;;;5.40;;
70535;SDS011;58089;48.752;11.338;2023-12-28T05:47:07;8.73;;;4.70;;
70535;SDS011;58089;48.752;11.338;2023-12-28T05:49:32;11.53;;;5.20;;
70535;SDS011;58089;48.752;11.338;2023-12-28T05:51:58;12.57;;;5.35;;
70535;SDS011;58089;48.752;11.338;2023-12-28T05:54:23;10.60;;;5.73;;
70535;SDS011;58089;48.752;11.338;2023-12-28T05:56:49;10.67;;;5.47;;
70535;SDS011;58089;48.752;11.338;2023-12-28T05:59:14;9.53;;;5.10;;
70535;SDS011;58089;48.752;11.338;2023-12-28T06:01:42;9.27;;;4.50;;
70535;SDS011;58089;48.752;11.338;2023-12-28T06:04:08;9.57;;;4.50;;
70535;SDS011;58089;48.752;11.338;2023-12-28T06:06:34;8.03;;;4.33;;
70535;SDS011;58089;48.752;11.338;2023-12-28T06:08:59;8.63;;;4.40;;
70535;SDS011;58089;48.752;11.338;2023-12-28T06:11:24;8.02;;;4.22;;
70535;SDS011;58089;48.752;11.338;2023-12-28T06:13:50;8.27;;;4.40;;
70535;SDS011;58089;48.752;11.338;2023-12-28T06:16:15;9.23;;;4.60;;
70535;SDS011;58089;48.752;11.338;2023-12-28T06:18:40;9.43;;;4.57;;
70535;SDS011;58089;48.752;11.338;2023-12-28T06:21:07;8.23;;;4.60;;
70535;SDS011;58089;48.752;11.338;2023-12-28T06:23:33;9.55;;;5.00;;
70535;SDS011;58089;48.752;11.338;2023-12-28T06:26:03;11.07;;;5.70;;
70535;SDS011;58089;48.752;11.338;2023-12-28T06:28:29;14.45;;;7.45;;
70535;SDS011;58089;48.752;11.338;2023-12-28T06:30:55;14.63;;;7.57;;
70535;SDS011;58089;48.752;11.338;2023-12-28T06:33:24;15.60;;;7.72;;
70535;SDS011;58089;48.752;11.338;2023-12-28T06:35:50;14.90;;;7.57;;
70535;SDS011;58089;48.752;11.338;2023-12-28T06:38:15;16.20;;;8.17;;
70535;SDS011;58089;48.752;11.338;2023-12-28T06:40:40;13.47;;;7.60;;
70535;SDS011;58089;48.752;11.338;2023-12-28T06:43:06;12.68;;;6.80;;
70535;SDS011;58089;48.752;11.338;2023-12-28T06:45:31;11.80;;;7.40;;
70535;SDS011;58089;48.752;11.338;2023-12-28T06:47:57;14.67;;;7.60;;
70535;SDS011;58089;48.752;11.338;2023-12-28T06:50:22;85.20;;;25.80;;
70535;SDS011;58089;48.752;11.338;2023-12-28T06:52:47;62.97;;;23.83;;
70535;SDS011;58089;48.752;11.338;2023-12-28T06:55:12;28.67;;;12.93;;
70535;SDS011;58089;48.752;11.338;2023-12-28T06:57:38;18.20;;;7.50;;
70535;SDS011;58089;48.752;11.338;2023-12-28T07:00:03;14.63;;;7.00;;
70535;SDS011;58089;48.752;11.338;2023-12-28T07:02:29;17.60;;;8.27;;
70535;SDS011;58089;48.752;11.338;2023-12-28T07:04:54;24.93;;;11.17;;
70535;SDS011;58089;48.752;11.338;2023-12-28T07:07:20;26.40;;;12.83;;
70535;SDS011;58089;48.752;11.338;2023-12-28T07:09:45;20.80;;;11.23;;
70535;SDS011;58089;48.752;11.338;2023-12-28T07:12:10;19.63;;;11.30;;
70535;SDS011;58089;48.752;11.338;2023-12-28T07:14:36;18.37;;;10.87;;
70535;SDS011;58089;48.752;11.338;2023-12-28T07:17:01;20.30;;;11.50;;
70535;SDS011;58089;48.752;11.338;2023-12-28T07:19:26;20.10;;;10.57;;
70535;SDS011;58089;48.752;11.338;2023-12-28T07:21:52;20.80;;;10.15;;
70535;SDS011;58089;48.752;11.338;2023-12-28T07:24:17;18.30;;;10.63;;
70535;SDS011;58089;48.752;11.338;2023-12-28T07:26:42;15.60;;;9.87;;
70535;SDS011;58089;48.752;11.338;2023-12-28T07:29:08;19.93;;;11.00;;
70535;SDS011;58089;48.752;11.338;2023-12-28T07:31:33;21.53;;;10.83;;
70535;SDS011;58089;48.752;11.338;2023-12-28T07:33:58;26.17;;;11.33;;
70535;SDS011;58089;48.752;11.338;2023-12-28T07:36:24;36.83;;;15.20;;
70535;SDS011;58089;48.752;11.338;2023-12-28T07:38:49;27.05;;;11.45;;
70535;SDS011;58089;48.752;11.338;2023-12-28T07:41:15;26.67;;;14.70;;
70535;SDS011;58089;48.752;11.338;2023-12-28T07:43:40;25.33;;;15.37;;
70535;SDS011;58089;48.752;11.338;2023-12-28T07:46:06;25.77;;;16.90;;
70535;SDS011;58089;48.752;11.338;2023-12-28T07:48:31;22.60;;;13.50;;
70535;SDS011;58089;48.752;11.338;2023-12-28T07:50:57;20.73;;;11.37;;
70535;SDS011;58089;48.752;11.338;2023-12-28T07:53:22;20.13;;;10.35;;
70535;SDS011;58089;48.752;11.338;2023-12-28T07:55:48;21.03;;;11.23;;
70535;SDS011;58089;48.752;11.338;2023-12-28T07:58:13;23.10;;;12.73;;
70535;SDS011;58089;48.752;11.338;2023-12-28T08:00:38;20.73;;;11.33;;
70535;SDS011;58089;48.752;11.338;2023-12-28T08:03:04;19.30;;;10.60;;
70535;SDS011;58089;48.752;11.338;2023-12-28T08:05:29;18.13;;;9.57;;
70535;SDS011;58089;48.752;11.338;2023-12-28T08:07:55;17.98;;;9.23;;
70535;SDS011;58089;48.752;11.338;2023-12-28T08:10:20;26.87;;;13.93;;
70535;SDS011;58089;48.752;11.338;2023-12-28T08:12:46;22.07;;;11.43;;
70535;SDS011;58089;48.752;11.338;2023-12-28T08:15:11;19.97;;;11.30;;
70535;SDS011;58089;48.752;11.338;2023-12-28T08:17:36;23.17;;;11.37;;
70535;SDS011;58089;48.752;11.338;2023-12-28T08:20:02;26.30;;;12.07;;
70535;SDS011;58089;48.752;11.338;2023-12-28T08:22:27;23.27;;;12.40;;
70535;SDS011;58089;48.752;11.338;2023-12-28T08:24:53;23.77;;;13.47;;
70535;SDS011;58089;48.752;11.338;2023-12-28T08:27:18;23.50;;;13.00;;
70535;SDS011;58089;48.752;11.338;2023-12-28T08:29:43;22.10;;;12.90;;
70535;SDS011;58089;48.752;11.338;2023-12-28T08:32:09;21.87;;;12.50;;
70535;SDS011;58089;48.752;11.338;2023-12-28T08:34:35;20.25;;;11.63;;
70535;SDS011;58089;48.752;11.338;2023-12-28T08:37:01;22.30;;;11.63;;
70535;SDS011;58089;48.752;11.338;2023-12-28T08:39:26;20.50;;;11.00;;
70535;SDS011;58089;48.752;11.338;2023-12-28T08:41:51;20.23;;;11.63;;
70535;SDS011;58089;48.752;11.338;2023-12-28T08:44:17;21.67;;;11.63;;
70535;SDS011;58089;48.752;11.338;2023-12-28T08:46:42;19.42;;;11.10;;
70535;SDS011;58089;48.752;11.338;2023-12-28T08:49:07;19.90;;;11.33;;
70535;SDS011;58089;48.752;11.338;2023-12-28T08:51:32;21.17;;;12.47;;
70535;SDS011;58089;48.752;11.338;2023-12-28T08:53:58;25.93;;;12.90;;
70535;SDS011;58089;48.752;11.338;2023-12-28T08:56:24;25.43;;;14.17;;
70535;SDS011;58089;48.752;11.338;2023-12-28T08:58:50;40.35;;;20.20;;
70535;SDS011;58089;48.752;11.338;2023-12-28T09:01:21;26.47;;;14.83;;
70535;SDS011;58089;48.752;11.338;2023-12-28T09:03:49;32.85;;;16.92;;
70535;SDS011;58089;48.752;11.338;2023-12-28T09:06:15;30.83;;;16.40;;
70535;SDS011;58089;48.752;11.338;2023-12-28T09:08:42;28.00;;;13.73;;
70535;SDS011;58089;48.752;11.338;2023-12-28T09:11:09;34.83;;;16.52;;
70535;SDS011;58089;48.752;11.338;2023-12-28T09:13:35;38.67;;;18.17;;
70535;SDS011;58089;48.752;11.338;2023-12-28T09:16:01;31.50;;;15.40;;
70535;SDS011;58089;48.752;11.338;2023-12-28T09:18:27;25.20;;;14.07;;
70535;SDS011;58089;48.752;11.338;2023-12-28T09:20:52;27.50;;;13.33;;
70535;SDS011;58089;48.752;11.338;2023-12-28T09:23:17;17.63;;;10.00;;
70535;SDS011;58089;48.752;11.338;2023-12-28T09:25:43;49.90;;;16.13;;
70535;SDS011;58089;48.752;11.338;2023-12-28T09:28:08;61.20;;;18.33;;
70535;SDS011;58089;48.752;11.338;2023-12-28T09:30:33;125.37;;;37.03;;
70535;SDS011;58089;48.752;11.338;2023-12-28T09:32:58;74.07;;;25.50;;
70535;SDS011;58089;48.752;11.338;2023-12-28T09:35:24;38.67;;;16.43;;
70535;SDS011;58089;48.752;11.338;2023-12-28T09:37:50;39.95;;;13.35;;
70535;SDS011;58089;48.752;11.338;2023-12-28T09:40:15;22.47;;;10.23;;
70535;SDS011;58089;48.752;11.338;2023-12-28T09:42:48;18.30;;;9.63;;
70535;SDS011;58089;48.752;11.338;2023-12-28T09:45:22;18.05;;;8.32;;
70535;SDS011;58089;48.752;11.338;2023-12-28T09:47:48;14.90;;;8.13;;
70535;SDS011;58089;48.752;11.338;2023-12-28T09:50:16;14.20;;;7.80;;
70535;SDS011;58089;48.752;11.338;2023-12-28T09:52:42;16.15;;;7.32;;
70535;SDS011;58089;48.752;11.338;2023-12-28T09:55:08;13.07;;;6.07;;
70535;SDS011;58089;48.752;11.338;2023-12-28T09:57:33;11.50;;;5.77;;
70535;SDS011;58089;48.752;11.338;2023-12-28T09:59:59;13.93;;;5.37;;
70535;SDS011;58089;48.752;11.338;2023-12-28T10:02:24;10.67;;;5.27;;
70535;SDS011;58089;48.752;11.338;2023-12-28T10:04:50;9.27;;;5.30;;
70535;SDS011;58089;48.752;11.338;2023-12-28T10:07:15;10.57;;;5.17;;
70535;SDS011;58089;48.752;11.338;2023-12-28T10:09:40;10.30;;;4.90;;
70535;SDS011;58089;48.752;11.338;2023-12-28T10:12:06;10.27;;;4.63;;
70535;SDS011;58089;48.752;11.338;2023-12-28T10:14:31;11.90;;;5.57;;
70535;SDS011;58089;48.752;11.338;2023-12-28T10:16:57;14.50;;;5.10;;
70535;SDS011;58089;48.752;11.338;2023-12-28T10:19:22;8.33;;;4.60;;
70535;SDS011;58089;48.752;11.338;2023-12-28T10:21:48;9.20;;;4.57;;
70535;SDS011;58089;48.752;11.338;2023-12-28T10:24:13;8.23;;;4.13;;
70535;SDS011;58089;48.752;11.338;2023-12-28T10:26:39;9.47;;;4.60;;
70535;SDS011;58089;48.752;11.338;2023-12-28T10:29:04;9.27;;;3.83;;
70535;SDS011;58089;48.752;11.338;2023-12-28T10:31:30;8.13;;;4.13;;
70535;SDS011;58089;48.752;11.338;2023-12-28T10:33:59;8.73;;;4.40;;
70535;SDS011;58089;48.752;11.338;2023-12-28T10:36:27;12.17;;;5.30;;
70535;SDS011;58089;48.752;11.338;2023-12-28T10:38:52;10.68;;;5.60;;
70535;SDS011;58089;48.752;11.338;2023-12-28T10:41:18;10.70;;;5.80;;
70535;SDS011;58089;48.752;11.338;2023-12-28T10:46:26;10.93;;;6.00;;
70535;SDS011;58089;48.752;11.338;2023-12-28T10:48:58;9.98;;;5.43;;
70535;SDS011;58089;48.752;11.338;2023-12-28T10:51:25;9.52;;;5.18;;
70535;SDS011;58089;48.752;11.338;2023-12-28T10:56:36;10.13;;;6.15;;
70535;SDS011;58089;48.752;11.338;2023-12-28T11:02:01;9.82;;;5.47;;
70535;SDS011;58089;48.752;11.338;2023-12-28T11:06:57;10.65;;;5.78;;
70535;SDS011;58089;48.752;11.338;2023-12-28T11:09:23;14.60;;;6.10;;
70535;SDS011;58089;48.752;11.338;2023-12-28T11:11:49;10.77;;;5.30;;
70535;SDS011;58089;48.752;11.338;2023-12-28T11:14:17;11.50;;;5.18;;
70535;SDS011;58089;48.752;11.338;2023-12-28T11:16:43;11.23;;;5.88;;
70535;SDS011;58089;48.752;11.338;2023-12-28T11:19:09;12.18;;;6.07;;
70535;SDS011;58089;48.752;11.338;2023-12-28T11:21:35;10.53;;;5.70;;
70535;SDS011;58089;48.752;11.338;2023-12-28T11:24:01;10.13;;;5.63;;
70535;SDS011;58089;48.752;11.338;2023-12-28T11:26:27;10.77;;;5.57;;
70535;SDS011;58089;48.752;11.338;2023-12-28T11:29:00;11.85;;;5.47;;
70535;SDS011;58089;48.752;11.338;2023-12-28T11:31:26;10.50;;;5.80;;
70535;SDS011;58089;48.752;11.338;2023-12-28T11:33:51;9.63;;;5.50;;
70535;SDS011;58089;48.752;11.338;2023-12-28T11:36:26;13.30;;;6.80;;
70535;SDS011;58089;48.752;11.338;2023-12-28T11:39:00;11.70;;;5.75;;
70535;SDS011;58089;48.752;11.338;2023-12-28T11:41:27;12.90;;;5.17;;
70535;SDS011;58089;48.752;11.338;2023-12-28T11:43:55;10.40;;;5.40;;
70535;SDS011;58089;48.752;11.338;2023-12-28T11:46:21;9.68;;;5.28;;
70535;SDS011;58089;48.752;11.338;2023-12-28T11:48:47;11.18;;;4.78;;
70535;SDS011;58089;48.752;11.338;2023-12-28T11:51:12;8.87;;;5.20;;
70535;SDS011;58089;48.752;11.338;2023-12-28T11:53:37;10.27;;;5.23;;
70535;SDS011;58089;48.752;11.338;2023-12-28T11:56:03;10.10;;;5.63;;
70535;SDS011;58089;48.752;11.338;2023-12-28T11:58:30;13.48;;;7.13;;
70535;SDS011;58089;48.752;11.338;2023-12-28T12:00:55;13.47;;;7.30;;
70535;SDS011;58089;48.752;11.338;2023-12-28T12:03:20;11.20;;;6.53;;
70535;SDS011;58089;48.752;11.338;2023-12-28T12:05:46;9.30;;;5.37;;
70535;SDS011;58089;48.752;11.338;2023-12-28T12:08:11;9.43;;;4.30;;
70535;SDS011;58089;48.752;11.338;2023-12-28T12:10:39;10.18;;;4.63;;
70535;SDS011;58089;48.752;11.338;2023-12-28T12:13:06;7.80;;;4.40;;
70535;SDS011;58089;48.752;11.338;2023-12-28T12:15:32;13.88;;;10.68;;
70535;SDS011;58089;48.752;11.338;2023-12-28T12:17:57;9.20;;;5.17;;
70535;SDS011;58089;48.752;11.338;2023-12-28T12:20:23;8.03;;;4.50;;
70535;SDS011;58089;48.752;11.338;2023-12-28T12:22:48;9.37;;;4.53;;
70535;SDS011;58089;48.752;11.338;2023-12-28T12:25:17;11.50;;;4.75;;
70535;SDS011;58089;48.752;11.338;2023-12-28T12:27:44;11.93;;;5.27;;
70535;SDS011;58089;48.752;11.338;2023-12-28T12:30:10;9.70;;;4.38;;
70535;SDS011;58089;48.752;11.338;2023-12-28T12:32:35;11.67;;;6.27;;
70535;SDS011;58089;48.752;11.338;2023-12-28T12:35:07;8.23;;;4.47;;
70535;SDS011;58089;48.752;11.338;2023-12-28T12:37:34;9.13;;;4.22;;
70535;SDS011;58089;48.752;11.338;2023-12-28T12:39:59;7.53;;;3.53;;
70535;SDS011;58089;48.752;11.338;2023-12-28T12:42:24;9.13;;;3.53;;
70535;SDS011;58089;48.752;11.338;2023-12-28T12:44:50;8.70;;;3.50;;
70535;SDS011;58089;48.752;11.338;2023-12-28T12:47:15;10.63;;;4.37;;
70535;SDS011;58089;48.752;11.338;2023-12-28T12:49:40;8.30;;;3.63;;
70535;SDS011;58089;48.752;11.338;2023-12-28T12:52:08;8.00;;;3.95;;
70535;SDS011;58089;48.752;11.338;2023-12-28T12:54:33;11.90;;;7.47;;
70535;SDS011;58089;48.752;11.338;2023-12-28T12:56:58;14.27;;;6.50;;
70535;SDS011;58089;48.752;11.338;2023-12-28T12:59:24;12.23;;;6.63;;
70535;SDS011;58089;48.752;11.338;2023-12-28T13:01:50;13.05;;;6.95;;
70535;SDS011;58089;48.752;11.338;2023-12-28T13:04:18;13.30;;;6.80;;
70535;SDS011;58089;48.752;11.338;2023-12-28T13:06:43;13.53;;;8.10;;
70535;SDS011;58089;48.752;11.338;2023-12-28T13:09:09;13.67;;;7.83;;
70535;SDS011;58089;48.752;11.338;2023-12-28T13:11:36;16.42;;;8.48;;
70535;SDS011;58089;48.752;11.338;2023-12-28T13:14:01;13.57;;;7.77;;
70535;SDS011;58089;48.752;11.338;2023-12-28T13:16:27;14.77;;;7.77;;
70535;SDS011;58089;48.752;11.338;2023-12-28T13:18:55;13.82;;;7.03;;
70535;SDS011;58089;48.752;11.338;2023-12-28T13:21:20;13.77;;;6.50;;
70535;SDS011;58089;48.752;11.338;2023-12-28T13:23:46;10.43;;;5.63;;
70535;SDS011;58089;48.752;11.338;2023-12-28T13:26:11;11.23;;;5.83;;
70535;SDS011;58089;48.752;11.338;2023-12-28T13:28:36;11.50;;;5.87;;
70535;SDS011;58089;48.752;11.338;2023-12-28T13:31:02;10.03;;;5.00;;
70535;SDS011;58089;48.752;11.338;2023-12-28T13:33:27;10.27;;;5.07;;
70535;SDS011;58089;48.752;11.338;2023-12-28T13:35:54;9.52;;;5.10;;
70535;SDS011;58089;48.752;11.338;2023-12-28T13:38:19;9.53;;;4.47;;
70535;SDS011;58089;48.752;11.338;2023-12-28T13:40:44;10.30;;;4.97;;
70535;SDS011;58089;48.752;11.338;2023-12-28T13:43:10;7.75;;;3.78;;
70535;SDS011;58089;48.752;11.338;2023-12-28T13:45:35;11.23;;;4.50;;
70535;SDS011;58089;48.752;11.338;2023-12-28T13:48:01;8.70;;;4.53;;
70535;SDS011;58089;48.752;11.338;2023-12-28T13:50:27;8.10;;;4.30;;
70535;SDS011;58089;48.752;11.338;2023-12-28T13:52:53;8.52;;;4.20;;
70535;SDS011;58089;48.752;11.338;2023-12-28T13:55:18;9.80;;;4.87;;
70535;SDS011;58089;48.752;11.338;2023-12-28T13:57:44;7.70;;;4.17;;
70535;SDS011;58089;48.752;11.338;2023-12-28T14:00:09;9.30;;;4.30;;
70535;SDS011;58089;48.752;11.338;2023-12-28T14:02:35;8.73;;;4.63;;
70535;SDS011;58089;48.752;11.338;2023-12-28T14:05:01;9.90;;;4.70;;
70535;SDS011;58089;48.752;11.338;2023-12-28T14:07:26;9.53;;;5.17;;
70535;SDS011;58089;48.752;11.338;2023-12-28T14:09:52;8.83;;;4.60;;
70535;SDS011;58089;48.752;11.338;2023-12-28T14:12:17;10.25;;;5.40;;
70535;SDS011;58089;48.752;11.338;2023-12-28T14:14:42;11.57;;;5.00;;
70535;SDS011;58089;48.752;11.338;2023-12-28T14:17:08;9.73;;;4.20;;
70535;SDS011;58089;48.752;11.338;2023-12-28T14:19:33;10.57;;;4.17;;
70535;SDS011;58089;48.752;11.338;2023-12-28T14:21:59;12.10;;;4.10;;
70535;SDS011;58089;48.752;11.338;2023-12-28T14:24:25;10.10;;;4.28;;
70535;SDS011;58089;48.752;11.338;2023-12-28T14:26:54;8.70;;;4.60;;